Share

Al-Kharj, Saudi Arabia

Prince Sultan Air Base (OEKJ) Elev 1640 ft | 24.07 °N, 47.58 °E | Change Station

Current weather conditions updated 29 minutes ago

Clear
Clear
93 °F
Feels Like 93 °F
N
12
Wind Variable Wind from South
Sunrise 5:26 AM
Sunset 6:13 PM
Moon Waning Gibbous

Today is forecast to be nearly the same temperature as yesterday.

Pressure 29.95 in
Visibility -9999.0 miles
Clouds
Dew Point 36 °F
Humidity 13%
Rainfall 0.00 in
Snow Depth Not available.
UV Not available.
Pollen Not available.
Air Quality Not available.
Flu Activity Not available.
METAR OEKJ 180600Z 18010KT CAVOK 34/02 Q1014

More Conditions Fewer Conditions

Pressure 29.95 in
Visibility -9999.0 miles
Clouds
Dew Point 36 °F
Humidity 13%
Rainfall 0.00 in
Snow Depth Not available.
UV Not available.
Pollen Not available.
Air Quality Not available.
Flu Activity Not available.
METAR OEKJ 180600Z 18010KT CAVOK 34/02 Q1014

More Conditions Fewer Conditions

10-Day Forecast

Almanac

Astronomy

Apr. 18, 2014 Rise Set
Actual Time 5:26 AM AST 6:13 PM AST
Civil Twilight 5:03 AM AST 6:37 PM AST
Nautical Twilight 4:36 AM AST 7:04 PM AST
Astronomical Twilight 4:08 AM AST 7:32 PM AST
Moon 9:22 PM AST 7:42 AM AST
Length of Visible Light 13h 33m
Length of Day
12h 46m
Tomorrow will be 1m 19s longer.
Waning Gibbous, 90% of the Moon is Illuminated
Today
Waning Gibbous
Apr 22
Last Quarter
Apr 29
New
May 6
First Quarter
May 14
Full

Yesterday's Extremes

Country Highs Country Lows

Community

  • SUNRISE THROUGH THE TREES.
    SUNRISE THROUGH THE TREES.
  • Dog Wood Blossoms
    Dog Wood Blossoms
  • Morning Light
    Morning Light
  • New Day
    New Day
  • Lake Michigan Sunrise
    Lake Michigan Sunrise

WunderPhotos

Upload Photos

1,702,276 photos uploaded!

WunderBlogs® & News

Nearby

Snow Depth

Not available.

Coastal Water Temperatures

Place Temperature
No Stations Reporting

Earthquake Activity

City Distance Mag. Time & Date
No recent earthquake activity has been reported nearby.
Minimum magnitude displayed is 2.5.

Nearby Weather Stations

There are no personal weather stations in this area.

What do you think?

We're not finished. Please let us know what you like, what you don't like, and what you are still missing.